Current Weather

Greater Kankakee

Kankakee, Illinois (KIKK)

Report from: Thursday, August 18, 2022 10:44 PM CDT
Current time: Thursday, August 18, 2022 11:13 PM CDT

Nearby weather
Weather history
Weather forecast

Temperature19.0°C (66.2°F)
Dew point16.0°C (60.8°F)
Winds 3 kts (1.5 m/s, 3.5 mph) South (190°)
Visibility10 mi. (16.1 km)
Clouds Sky clear
Altimeter29.97 in.Hg (1015 mB)
Relative humidity83 %
Density altitude663 ft. (202 m)
Remarks Fully automated report
Automated weather observing station with precipitation discriminator
Flight conditions Visual Meteorological Conditions
Raw dataKIKK 190344Z AUTO 19003KT 10SM CLR 19/16 A2997 RMK AO2
An unhandled exception has occurred. See browser dev tools for details. Reload 🗙